SBTE

Teresina Airport

Airport
ICAO code
SBTE
IATA Code
THE
Summary
ICAO Region
CARSAM
ICAO Territory
Location

Teresina, Piaui

Serving
Teresina
Elevation
219 ft
Coordinates
5° 3' 38" S , 42° 49' 28" W
KCC
Metar
SBTE 222100Z 14005KT CAVOK 32/22 Q1011

Teresina–Senador Petrônio Portella Airport is the airport serving Teresina, Brazil.

Climatology

Tropical savanna climate (Köppen climate classification Aw)

Runways

Designator Length Width Surface Rops
2/20 2200 45 ASP Yes/Yes

Airport map

Aerial View

SKYbrary Partners:

Safety knowledge contributed by: